sensor_id;sensor_type;location;lat;lon;timestamp;P1;durP1;ratioP1;P2;durP2;ratioP2
68214;SDS011;55036;52.138;5.236;2022-12-07T00:00:14;7.97;;;4.43;;
68214;SDS011;55036;52.138;5.236;2022-12-07T00:02:41;8.82;;;4.95;;
68214;SDS011;55036;52.138;5.236;2022-12-07T00:05:08;9.20;;;5.82;;
68214;SDS011;55036;52.138;5.236;2022-12-07T00:07:34;9.80;;;4.90;;
68214;SDS011;55036;52.138;5.236;2022-12-07T00:10:01;11.95;;;5.68;;
68214;SDS011;55036;52.138;5.236;2022-12-07T00:12:28;10.95;;;5.10;;
68214;SDS011;55036;52.138;5.236;2022-12-07T00:14:55;10.70;;;5.53;;
68214;SDS011;55036;52.138;5.236;2022-12-07T00:17:21;10.57;;;6.10;;
68214;SDS011;55036;52.138;5.236;2022-12-07T00:19:48;13.07;;;4.93;;
68214;SDS011;55036;52.138;5.236;2022-12-07T00:22:15;10.68;;;4.97;;
68214;SDS011;55036;52.138;5.236;2022-12-07T00:24:41;24.33;;;9.23;;
68214;SDS011;55036;52.138;5.236;2022-12-07T00:27:08;14.82;;;6.75;;
68214;SDS011;55036;52.138;5.236;2022-12-07T00:29:34;15.18;;;6.35;;
68214;SDS011;55036;52.138;5.236;2022-12-07T00:32:03;11.98;;;4.28;;
68214;SDS011;55036;52.138;5.236;2022-12-07T00:34:30;9.00;;;3.97;;
68214;SDS011;55036;52.138;5.236;2022-12-07T00:36:56;8.85;;;4.70;;
68214;SDS011;55036;52.138;5.236;2022-12-07T00:39:23;9.70;;;3.88;;
68214;SDS011;55036;52.138;5.236;2022-12-07T00:41:49;10.02;;;3.58;;
68214;SDS011;55036;52.138;5.236;2022-12-07T00:44:16;8.68;;;3.35;;
68214;SDS011;55036;52.138;5.236;2022-12-07T00:46:43;6.30;;;3.35;;
68214;SDS011;55036;52.138;5.236;2022-12-07T00:49:11;10.93;;;3.65;;
68214;SDS011;55036;52.138;5.236;2022-12-07T00:51:38;8.50;;;3.10;;
68214;SDS011;55036;52.138;5.236;2022-12-07T00:54:04;8.07;;;3.33;;
68214;SDS011;55036;52.138;5.236;2022-12-07T00:56:31;7.00;;;3.10;;
68214;SDS011;55036;52.138;5.236;2022-12-07T00:59:02;5.07;;;2.97;;
68214;SDS011;55036;52.138;5.236;2022-12-07T01:01:31;6.82;;;3.10;;
68214;SDS011;55036;52.138;5.236;2022-12-07T01:03:59;5.63;;;3.13;;
68214;SDS011;55036;52.138;5.236;2022-12-07T01:06:27;7.28;;;3.22;;
68214;SDS011;55036;52.138;5.236;2022-12-07T01:08:55;5.60;;;3.10;;
68214;SDS011;55036;52.138;5.236;2022-12-07T01:11:23;5.25;;;3.00;;
68214;SDS011;55036;52.138;5.236;2022-12-07T01:13:52;5.07;;;2.85;;
68214;SDS011;55036;52.138;5.236;2022-12-07T01:16:21;8.43;;;3.95;;
68214;SDS011;55036;52.138;5.236;2022-12-07T01:18:50;4.95;;;2.78;;
68214;SDS011;55036;52.138;5.236;2022-12-07T01:21:23;7.63;;;3.15;;
68214;SDS011;55036;52.138;5.236;2022-12-07T01:23:52;4.65;;;2.90;;
68214;SDS011;55036;52.138;5.236;2022-12-07T01:26:20;5.68;;;2.95;;
68214;SDS011;55036;52.138;5.236;2022-12-07T01:28:48;9.10;;;2.90;;
68214;SDS011;55036;52.138;5.236;2022-12-07T01:31:16;5.78;;;3.03;;
68214;SDS011;55036;52.138;5.236;2022-12-07T01:33:47;4.32;;;2.90;;
68214;SDS011;55036;52.138;5.236;2022-12-07T01:36:22;5.88;;;3.10;;
68214;SDS011;55036;52.138;5.236;2022-12-07T01:38:51;8.45;;;2.65;;
68214;SDS011;55036;52.138;5.236;2022-12-07T01:41:22;7.82;;;2.95;;
68214;SDS011;55036;52.138;5.236;2022-12-07T01:46:43;5.78;;;2.85;;
68214;SDS011;55036;52.138;5.236;2022-12-07T01:51:45;5.82;;;2.53;;
68214;SDS011;55036;52.138;5.236;2022-12-07T01:54:13;4.05;;;2.13;;
68214;SDS011;55036;52.138;5.236;2022-12-07T01:56:43;6.22;;;2.60;;
68214;SDS011;55036;52.138;5.236;2022-12-07T01:59:14;3.88;;;2.30;;
68214;SDS011;55036;52.138;5.236;2022-12-07T02:01:42;7.40;;;2.63;;
68214;SDS011;55036;52.138;5.236;2022-12-07T02:04:10;10.75;;;2.70;;
68214;SDS011;55036;52.138;5.236;2022-12-07T02:06:37;6.93;;;2.45;;
68214;SDS011;55036;52.138;5.236;2022-12-07T02:09:04;9.95;;;2.63;;
68214;SDS011;55036;52.138;5.236;2022-12-07T02:11:31;9.73;;;2.53;;
68214;SDS011;55036;52.138;5.236;2022-12-07T02:13:58;5.40;;;2.20;;
68214;SDS011;55036;52.138;5.236;2022-12-07T02:16:31;4.97;;;2.30;;
68214;SDS011;55036;52.138;5.236;2022-12-07T02:24:54;7.60;;;2.47;;
68214;SDS011;55036;52.138;5.236;2022-12-07T02:27:47;4.60;;;1.75;;
68214;SDS011;55036;52.138;5.236;2022-12-07T02:30:22;9.73;;;3.13;;
68214;SDS011;55036;52.138;5.236;2022-12-07T02:32:59;7.20;;;2.25;;
68214;SDS011;55036;52.138;5.236;2022-12-07T02:35:32;8.32;;;2.65;;
68214;SDS011;55036;52.138;5.236;2022-12-07T02:38:13;5.43;;;2.30;;
68214;SDS011;55036;52.138;5.236;2022-12-07T02:41:04;5.65;;;2.20;;
68214;SDS011;55036;52.138;5.236;2022-12-07T02:43:42;6.88;;;2.58;;
68214;SDS011;55036;52.138;5.236;2022-12-07T02:46:17;6.88;;;2.25;;
68214;SDS011;55036;52.138;5.236;2022-12-07T02:48:51;11.10;;;2.83;;
68214;SDS011;55036;52.138;5.236;2022-12-07T02:51:21;5.50;;;2.28;;
68214;SDS011;55036;52.138;5.236;2022-12-07T02:53:48;3.78;;;2.25;;
68214;SDS011;55036;52.138;5.236;2022-12-07T02:56:33;3.92;;;2.35;;
68214;SDS011;55036;52.138;5.236;2022-12-07T02:59:26;7.57;;;2.50;;
68214;SDS011;55036;52.138;5.236;2022-12-07T03:07:29;4.90;;;2.08;;
68214;SDS011;55036;52.138;5.236;2022-12-07T03:10:17;9.25;;;2.72;;
68214;SDS011;55036;52.138;5.236;2022-12-07T03:15:49;7.72;;;1.98;;
68214;SDS011;55036;52.138;5.236;2022-12-07T03:18:19;5.68;;;2.00;;
68214;SDS011;55036;52.138;5.236;2022-12-07T03:20:49;6.45;;;2.45;;
68214;SDS011;55036;52.138;5.236;2022-12-07T03:23:18;6.20;;;2.35;;
68214;SDS011;55036;52.138;5.236;2022-12-07T03:25:47;6.10;;;2.30;;
68214;SDS011;55036;52.138;5.236;2022-12-07T03:28:26;9.43;;;2.92;;
68214;SDS011;55036;52.138;5.236;2022-12-07T03:31:09;7.40;;;2.20;;
68214;SDS011;55036;52.138;5.236;2022-12-07T03:36:23;6.35;;;2.13;;
68214;SDS011;55036;52.138;5.236;2022-12-07T03:39:03;5.55;;;2.22;;
68214;SDS011;55036;52.138;5.236;2022-12-07T03:41:39;3.40;;;2.35;;
68214;SDS011;55036;52.138;5.236;2022-12-07T03:44:10;9.10;;;2.53;;
68214;SDS011;55036;52.138;5.236;2022-12-07T03:52:40;8.77;;;2.25;;
68214;SDS011;55036;52.138;5.236;2022-12-07T03:57:42;3.17;;;2.03;;
68214;SDS011;55036;52.138;5.236;2022-12-07T04:00:11;5.25;;;1.95;;
68214;SDS011;55036;52.138;5.236;2022-12-07T04:02:38;4.97;;;1.70;;
68214;SDS011;55036;52.138;5.236;2022-12-07T04:05:06;6.22;;;2.10;;
68214;SDS011;55036;52.138;5.236;2022-12-07T04:07:33;3.45;;;1.73;;
68214;SDS011;55036;52.138;5.236;2022-12-07T04:10:00;4.53;;;1.80;;
68214;SDS011;55036;52.138;5.236;2022-12-07T04:12:27;4.05;;;2.20;;
68214;SDS011;55036;52.138;5.236;2022-12-07T04:14:54;4.57;;;2.10;;
68214;SDS011;55036;52.138;5.236;2022-12-07T04:17:21;5.28;;;2.22;;
68214;SDS011;55036;52.138;5.236;2022-12-07T04:19:47;5.32;;;1.90;;
68214;SDS011;55036;52.138;5.236;2022-12-07T04:22:14;6.38;;;2.20;;
68214;SDS011;55036;52.138;5.236;2022-12-07T04:24:41;5.45;;;2.05;;
68214;SDS011;55036;52.138;5.236;2022-12-07T04:27:08;5.28;;;2.05;;
68214;SDS011;55036;52.138;5.236;2022-12-07T04:29:34;4.25;;;2.17;;
68214;SDS011;55036;52.138;5.236;2022-12-07T04:32:01;3.35;;;1.80;;
68214;SDS011;55036;52.138;5.236;2022-12-07T04:34:27;5.68;;;1.85;;
68214;SDS011;55036;52.138;5.236;2022-12-07T04:36:54;4.32;;;1.83;;
68214;SDS011;55036;52.138;5.236;2022-12-07T04:39:25;9.38;;;2.08;;
68214;SDS011;55036;52.138;5.236;2022-12-07T04:41:54;7.68;;;1.77;;
68214;SDS011;55036;52.138;5.236;2022-12-07T04:44:21;7.45;;;2.03;;
68214;SDS011;55036;52.138;5.236;2022-12-07T04:46:49;6.93;;;1.27;;
68214;SDS011;55036;52.138;5.236;2022-12-07T04:49:17;5.13;;;1.40;;
68214;SDS011;55036;52.138;5.236;2022-12-07T04:51:44;6.10;;;1.40;;
68214;SDS011;55036;52.138;5.236;2022-12-07T04:54:11;6.47;;;1.75;;
68214;SDS011;55036;52.138;5.236;2022-12-07T04:56:39;5.70;;;1.58;;
68214;SDS011;55036;52.138;5.236;2022-12-07T04:59:06;2.72;;;1.55;;
68214;SDS011;55036;52.138;5.236;2022-12-07T05:01:33;7.78;;;1.88;;
68214;SDS011;55036;52.138;5.236;2022-12-07T05:04:00;3.78;;;1.40;;
68214;SDS011;55036;52.138;5.236;2022-12-07T05:06:27;6.00;;;1.58;;
68214;SDS011;55036;52.138;5.236;2022-12-07T05:08:54;6.20;;;1.73;;
68214;SDS011;55036;52.138;5.236;2022-12-07T05:11:20;5.78;;;1.27;;
68214;SDS011;55036;52.138;5.236;2022-12-07T05:16:34;3.40;;;1.23;;
68214;SDS011;55036;52.138;5.236;2022-12-07T05:19:01;4.80;;;1.30;;
68214;SDS011;55036;52.138;5.236;2022-12-07T05:21:28;3.25;;;1.40;;
68214;SDS011;55036;52.138;5.236;2022-12-07T05:23:54;3.60;;;1.55;;
68214;SDS011;55036;52.138;5.236;2022-12-07T05:26:21;5.22;;;1.40;;
68214;SDS011;55036;52.138;5.236;2022-12-07T05:28:51;6.70;;;1.50;;
68214;SDS011;55036;52.138;5.236;2022-12-07T05:31:22;4.15;;;1.23;;
68214;SDS011;55036;52.138;5.236;2022-12-07T05:33:50;3.67;;;1.55;;
68214;SDS011;55036;52.138;5.236;2022-12-07T05:36:17;4.32;;;1.45;;
68214;SDS011;55036;52.138;5.236;2022-12-07T05:38:44;7.63;;;1.80;;
68214;SDS011;55036;52.138;5.236;2022-12-07T05:41:15;5.28;;;1.55;;
68214;SDS011;55036;52.138;5.236;2022-12-07T05:44:01;4.78;;;1.60;;
68214;SDS011;55036;52.138;5.236;2022-12-07T05:46:28;2.40;;;1.30;;
68214;SDS011;55036;52.138;5.236;2022-12-07T05:48:55;8.70;;;2.05;;
68214;SDS011;55036;52.138;5.236;2022-12-07T05:51:22;7.32;;;1.80;;
68214;SDS011;55036;52.138;5.236;2022-12-07T05:53:49;4.93;;;1.60;;
68214;SDS011;55036;52.138;5.236;2022-12-07T05:56:15;4.97;;;1.77;;
68214;SDS011;55036;52.138;5.236;2022-12-07T05:58:42;5.28;;;1.42;;
68214;SDS011;55036;52.138;5.236;2022-12-07T06:01:27;2.67;;;1.30;;
68214;SDS011;55036;52.138;5.236;2022-12-07T06:03:54;6.43;;;1.80;;
68214;SDS011;55036;52.138;5.236;2022-12-07T06:06:21;2.80;;;1.25;;
68214;SDS011;55036;52.138;5.236;2022-12-07T06:08:47;4.55;;;1.80;;
68214;SDS011;55036;52.138;5.236;2022-12-07T06:11:14;3.97;;;1.55;;
68214;SDS011;55036;52.138;5.236;2022-12-07T06:14:00;2.70;;;1.38;;
68214;SDS011;55036;52.138;5.236;2022-12-07T06:16:26;6.72;;;1.50;;
68214;SDS011;55036;52.138;5.236;2022-12-07T06:18:53;3.55;;;1.40;;
68214;SDS011;55036;52.138;5.236;2022-12-07T06:21:19;3.63;;;1.40;;
68214;SDS011;55036;52.138;5.236;2022-12-07T06:23:46;2.90;;;1.40;;
68214;SDS011;55036;52.138;5.236;2022-12-07T06:26:14;3.97;;;1.55;;
68214;SDS011;55036;52.138;5.236;2022-12-07T06:28:40;5.38;;;1.60;;
68214;SDS011;55036;52.138;5.236;2022-12-07T06:31:07;6.88;;;1.90;;
68214;SDS011;55036;52.138;5.236;2022-12-07T06:33:40;7.43;;;1.70;;
68214;SDS011;55036;52.138;5.236;2022-12-07T06:36:07;5.38;;;1.40;;
68214;SDS011;55036;52.138;5.236;2022-12-07T06:38:35;2.03;;;1.08;;
68214;SDS011;55036;52.138;5.236;2022-12-07T06:41:02;5.05;;;1.50;;
68214;SDS011;55036;52.138;5.236;2022-12-07T06:43:29;3.17;;;1.05;;
68214;SDS011;55036;52.138;5.236;2022-12-07T06:45:55;4.30;;;1.42;;
68214;SDS011;55036;52.138;5.236;2022-12-07T06:48:22;5.07;;;2.33;;
68214;SDS011;55036;52.138;5.236;2022-12-07T06:50:49;5.25;;;1.73;;
68214;SDS011;55036;52.138;5.236;2022-12-07T06:53:20;4.00;;;1.85;;
68214;SDS011;55036;52.138;5.236;2022-12-07T06:55:47;4.32;;;1.90;;
68214;SDS011;55036;52.138;5.236;2022-12-07T06:58:14;6.30;;;2.20;;
68214;SDS011;55036;52.138;5.236;2022-12-07T07:00:40;7.13;;;2.05;;
68214;SDS011;55036;52.138;5.236;2022-12-07T07:03:07;2.65;;;1.52;;
68214;SDS011;55036;52.138;5.236;2022-12-07T07:05:34;3.53;;;1.70;;
68214;SDS011;55036;52.138;5.236;2022-12-07T07:08:01;3.15;;;1.77;;
68214;SDS011;55036;52.138;5.236;2022-12-07T07:10:48;6.55;;;2.00;;
68214;SDS011;55036;52.138;5.236;2022-12-07T07:13:15;5.32;;;2.38;;
68214;SDS011;55036;52.138;5.236;2022-12-07T07:15:42;7.68;;;1.83;;
68214;SDS011;55036;52.138;5.236;2022-12-07T07:18:08;4.75;;;1.83;;
68214;SDS011;55036;52.138;5.236;2022-12-07T07:20:35;5.90;;;2.60;;
68214;SDS011;55036;52.138;5.236;2022-12-07T07:23:02;6.88;;;2.92;;
68214;SDS011;55036;52.138;5.236;2022-12-07T07:25:29;8.38;;;2.90;;
68214;SDS011;55036;52.138;5.236;2022-12-07T07:27:56;18.08;;;2.85;;
68214;SDS011;55036;52.138;5.236;2022-12-07T07:30:23;8.63;;;2.85;;
68214;SDS011;55036;52.138;5.236;2022-12-07T07:32:50;8.50;;;2.75;;
68214;SDS011;55036;52.138;5.236;2022-12-07T07:35:17;4.82;;;2.13;;
68214;SDS011;55036;52.138;5.236;2022-12-07T07:37:44;6.93;;;2.83;;
68214;SDS011;55036;52.138;5.236;2022-12-07T07:40:10;7.30;;;2.55;;
68214;SDS011;55036;52.138;5.236;2022-12-07T07:42:37;6.78;;;2.22;;
68214;SDS011;55036;52.138;5.236;2022-12-07T07:45:04;4.22;;;2.15;;
68214;SDS011;55036;52.138;5.236;2022-12-07T07:47:31;4.63;;;2.33;;
68214;SDS011;55036;52.138;5.236;2022-12-07T07:49:58;6.72;;;2.05;;
68214;SDS011;55036;52.138;5.236;2022-12-07T07:52:24;2.67;;;1.63;;
68214;SDS011;55036;52.138;5.236;2022-12-07T07:54:51;6.45;;;1.90;;
68214;SDS011;55036;52.138;5.236;2022-12-07T07:57:18;4.47;;;2.00;;
68214;SDS011;55036;52.138;5.236;2022-12-07T07:59:44;4.78;;;2.30;;
68214;SDS011;55036;52.138;5.236;2022-12-07T08:02:15;13.18;;;3.05;;
68214;SDS011;55036;52.138;5.236;2022-12-07T08:04:43;6.80;;;2.20;;
68214;SDS011;55036;52.138;5.236;2022-12-07T08:07:11;7.00;;;2.65;;
68214;SDS011;55036;52.138;5.236;2022-12-07T08:09:38;10.18;;;2.83;;
68214;SDS011;55036;52.138;5.236;2022-12-07T08:12:05;6.85;;;3.88;;
68214;SDS011;55036;52.138;5.236;2022-12-07T08:14:32;8.80;;;3.90;;
68214;SDS011;55036;52.138;5.236;2022-12-07T08:17:00;9.40;;;4.07;;
68214;SDS011;55036;52.138;5.236;2022-12-07T08:19:27;10.02;;;3.90;;
68214;SDS011;55036;52.138;5.236;2022-12-07T08:21:53;8.65;;;4.50;;
68214;SDS011;55036;52.138;5.236;2022-12-07T08:24:22;9.15;;;3.85;;
68214;SDS011;55036;52.138;5.236;2022-12-07T08:26:49;7.63;;;3.88;;
68214;SDS011;55036;52.138;5.236;2022-12-07T08:29:16;7.03;;;3.25;;
68214;SDS011;55036;52.138;5.236;2022-12-07T08:31:43;6.47;;;2.35;;
68214;SDS011;55036;52.138;5.236;2022-12-07T08:34:10;4.82;;;2.42;;
68214;SDS011;55036;52.138;5.236;2022-12-07T08:36:37;8.23;;;2.28;;
68214;SDS011;55036;52.138;5.236;2022-12-07T08:39:04;9.30;;;2.40;;
68214;SDS011;55036;52.138;5.236;2022-12-07T08:41:50;6.55;;;2.00;;
68214;SDS011;55036;52.138;5.236;2022-12-07T08:44:17;3.95;;;2.00;;
68214;SDS011;55036;52.138;5.236;2022-12-07T08:46:45;3.65;;;2.10;;
68214;SDS011;55036;52.138;5.236;2022-12-07T08:49:26;3.65;;;2.08;;
68214;SDS011;55036;52.138;5.236;2022-12-07T08:51:58;4.65;;;1.75;;
68214;SDS011;55036;52.138;5.236;2022-12-07T08:54:24;7.70;;;2.13;;
68214;SDS011;55036;52.138;5.236;2022-12-07T08:56:51;5.70;;;1.92;;
68214;SDS011;55036;52.138;5.236;2022-12-07T08:59:25;4.45;;;2.33;;
68214;SDS011;55036;52.138;5.236;2022-12-07T09:01:53;5.25;;;1.92;;
68214;SDS011;55036;52.138;5.236;2022-12-07T09:04:20;6.82;;;2.08;;
68214;SDS011;55036;52.138;5.236;2022-12-07T09:06:47;7.75;;;2.30;;
68214;SDS011;55036;52.138;5.236;2022-12-07T09:09:14;8.13;;;2.55;;
68214;SDS011;55036;52.138;5.236;2022-12-07T09:11:41;4.95;;;2.10;;
68214;SDS011;55036;52.138;5.236;2022-12-07T09:14:08;4.43;;;2.13;;
68214;SDS011;55036;52.138;5.236;2022-12-07T09:16:35;9.20;;;2.15;;
68214;SDS011;55036;52.138;5.236;2022-12-07T09:19:01;9.68;;;1.85;;
68214;SDS011;55036;52.138;5.236;2022-12-07T09:21:28;8.23;;;1.90;;
68214;SDS011;55036;52.138;5.236;2022-12-07T09:23:55;4.10;;;1.90;;
68214;SDS011;55036;52.138;5.236;2022-12-07T09:26:22;5.80;;;1.90;;
68214;SDS011;55036;52.138;5.236;2022-12-07T09:28:49;7.97;;;2.13;;
68214;SDS011;55036;52.138;5.236;2022-12-07T09:31:15;5.05;;;1.95;;
68214;SDS011;55036;52.138;5.236;2022-12-07T09:33:55;10.88;;;2.72;;
68214;SDS011;55036;52.138;5.236;2022-12-07T09:36:27;7.55;;;2.63;;
68214;SDS011;55036;52.138;5.236;2022-12-07T09:38:54;8.45;;;2.13;;
68214;SDS011;55036;52.138;5.236;2022-12-07T09:41:21;6.22;;;2.97;;
68214;SDS011;55036;52.138;5.236;2022-12-07T09:43:50;9.32;;;2.50;;
68214;SDS011;55036;52.138;5.236;2022-12-07T09:46:18;8.25;;;2.40;;
68214;SDS011;55036;52.138;5.236;2022-12-07T09:48:46;7.35;;;1.80;;
68214;SDS011;55036;52.138;5.236;2022-12-07T09:51:22;9.57;;;2.10;;
68214;SDS011;55036;52.138;5.236;2022-12-07T09:53:52;8.80;;;1.98;;
68214;SDS011;55036;52.138;5.236;2022-12-07T09:56:20;5.20;;;1.63;;
68214;SDS011;55036;52.138;5.236;2022-12-07T09:58:48;9.48;;;2.10;;
68214;SDS011;55036;52.138;5.236;2022-12-07T10:01:16;7.55;;;1.40;;
68214;SDS011;55036;52.138;5.236;2022-12-07T10:03:48;9.07;;;2.13;;
68214;SDS011;55036;52.138;5.236;2022-12-07T10:06:17;6.72;;;2.03;;
68214;SDS011;55036;52.138;5.236;2022-12-07T10:08:44;7.90;;;2.20;;
68214;SDS011;55036;52.138;5.236;2022-12-07T10:11:11;5.90;;;1.85;;
68214;SDS011;55036;52.138;5.236;2022-12-07T10:13:42;6.57;;;1.60;;
68214;SDS011;55036;52.138;5.236;2022-12-07T10:16:27;6.57;;;2.08;;
68214;SDS011;55036;52.138;5.236;2022-12-07T10:19:19;5.80;;;1.90;;
68214;SDS011;55036;52.138;5.236;2022-12-07T10:22:12;6.60;;;1.67;;
68214;SDS011;55036;52.138;5.236;2022-12-07T10:24:40;8.23;;;2.10;;
68214;SDS011;55036;52.138;5.236;2022-12-07T10:27:17;3.95;;;1.42;;
68214;SDS011;55036;52.138;5.236;2022-12-07T10:29:47;3.97;;;1.42;;
68214;SDS011;55036;52.138;5.236;2022-12-07T10:34:43;8.48;;;2.22;;
68214;SDS011;55036;52.138;5.236;2022-12-07T10:37:18;5.95;;;1.67;;
68214;SDS011;55036;52.138;5.236;2022-12-07T10:39:53;4.43;;;1.50;;
68214;SDS011;55036;52.138;5.236;2022-12-07T10:42:27;11.18;;;1.60;;
68214;SDS011;55036;52.138;5.236;2022-12-07T10:45:17;6.00;;;1.50;;
68214;SDS011;55036;52.138;5.236;2022-12-07T10:50:28;7.28;;;1.60;;
68214;SDS011;55036;52.138;5.236;2022-12-07T10:53:18;7.53;;;2.00;;
68214;SDS011;55036;52.138;5.236;2022-12-07T11:15:38;6.22;;;1.50;;
68214;SDS011;55036;52.138;5.236;2022-12-07T11:18:14;5.72;;;1.30;;
68214;SDS011;55036;52.138;5.236;2022-12-07T11:31:51;5.43;;;1.45;;
68214;SDS011;55036;52.138;5.236;2022-12-07T11:37:15;5.78;;;1.33;;
68214;SDS011;55036;52.138;5.236;2022-12-07T11:42:30;3.90;;;1.10;;
68214;SDS011;55036;52.138;5.236;2022-12-07T11:45:21;5.65;;;2.03;;
68214;SDS011;55036;52.138;5.236;2022-12-07T11:47:59;7.13;;;1.30;;
68214;SDS011;55036;52.138;5.236;2022-12-07T11:50:34;6.03;;;1.10;;
68214;SDS011;55036;52.138;5.236;2022-12-07T11:55:56;6.38;;;1.10;;
68214;SDS011;55036;52.138;5.236;2022-12-07T11:58:35;5.18;;;1.40;;
68214;SDS011;55036;52.138;5.236;2022-12-07T12:03:52;4.38;;;1.20;;
68214;SDS011;55036;52.138;5.236;2022-12-07T12:06:24;5.65;;;1.10;;
68214;SDS011;55036;52.138;5.236;2022-12-07T12:09:00;4.05;;;1.20;;
68214;SDS011;55036;52.138;5.236;2022-12-07T12:21:00;5.63;;;2.45;;
68214;SDS011;55036;52.138;5.236;2022-12-07T12:23:43;5.25;;;1.45;;
68214;SDS011;55036;52.138;5.236;2022-12-07T12:26:24;9.98;;;1.23;;
68214;SDS011;55036;52.138;5.236;2022-12-07T12:33:50;10.27;;;1.45;;
68214;SDS011;55036;52.138;5.236;2022-12-07T12:36:20;5.22;;;1.23;;
68214;SDS011;55036;52.138;5.236;2022-12-07T12:51:50;5.70;;;1.35;;
68214;SDS011;55036;52.138;5.236;2022-12-07T12:54:22;7.22;;;1.10;;
68214;SDS011;55036;52.138;5.236;2022-12-07T13:05:03;6.10;;;1.40;;
68214;SDS011;55036;52.138;5.236;2022-12-07T13:23:30;4.07;;;1.33;;
68214;SDS011;55036;52.138;5.236;2022-12-07T13:28:44;5.15;;;1.10;;
68214;SDS011;55036;52.138;5.236;2022-12-07T13:31:18;4.63;;;1.35;;
68214;SDS011;55036;52.138;5.236;2022-12-07T13:33:51;7.28;;;1.40;;
68214;SDS011;55036;52.138;5.236;2022-12-07T13:38:59;6.25;;;0.95;;
68214;SDS011;55036;52.138;5.236;2022-12-07T13:41:36;5.97;;;1.50;;
68214;SDS011;55036;52.138;5.236;2022-12-07T13:44:08;5.55;;;1.10;;
68214;SDS011;55036;52.138;5.236;2022-12-07T13:49:47;5.32;;;2.05;;
68214;SDS011;55036;52.138;5.236;2022-12-07T13:52:23;7.35;;;1.27;;
68214;SDS011;55036;52.138;5.236;2022-12-07T13:54:58;6.32;;;1.38;;
68214;SDS011;55036;52.138;5.236;2022-12-07T13:57:47;5.03;;;1.50;;
68214;SDS011;55036;52.138;5.236;2022-12-07T14:00:20;5.53;;;1.10;;
68214;SDS011;55036;52.138;5.236;2022-12-07T14:05:26;4.65;;;0.77;;
68214;SDS011;55036;52.138;5.236;2022-12-07T14:08:03;2.85;;;0.98;;
68214;SDS011;55036;52.138;5.236;2022-12-07T14:10:33;3.00;;;0.80;;
68214;SDS011;55036;52.138;5.236;2022-12-07T14:13:00;2.10;;;0.60;;
68214;SDS011;55036;52.138;5.236;2022-12-07T14:15:29;5.63;;;0.57;;
68214;SDS011;55036;52.138;5.236;2022-12-07T14:17:59;4.20;;;0.95;;
68214;SDS011;55036;52.138;5.236;2022-12-07T14:20:39;4.22;;;0.50;;
68214;SDS011;55036;52.138;5.236;2022-12-07T14:23:21;3.47;;;0.60;;
68214;SDS011;55036;52.138;5.236;2022-12-07T14:25:52;3.45;;;0.88;;
68214;SDS011;55036;52.138;5.236;2022-12-07T14:28:29;2.85;;;0.60;;
68214;SDS011;55036;52.138;5.236;2022-12-07T14:30:59;4.07;;;0.90;;
68214;SDS011;55036;52.138;5.236;2022-12-07T14:33:27;2.47;;;0.85;;
68214;SDS011;55036;52.138;5.236;2022-12-07T14:35:54;2.90;;;0.52;;
68214;SDS011;55036;52.138;5.236;2022-12-07T14:38:24;4.72;;;1.08;;
68214;SDS011;55036;52.138;5.236;2022-12-07T14:40:52;2.80;;;0.90;;
68214;SDS011;55036;52.138;5.236;2022-12-07T14:43:20;4.15;;;0.93;;
68214;SDS011;55036;52.138;5.236;2022-12-07T14:45:46;4.90;;;1.25;;
68214;SDS011;55036;52.138;5.236;2022-12-07T14:48:14;3.20;;;0.75;;
68214;SDS011;55036;52.138;5.236;2022-12-07T14:51:01;2.63;;;0.80;;
68214;SDS011;55036;52.138;5.236;2022-12-07T14:53:50;8.38;;;1.13;;
68214;SDS011;55036;52.138;5.236;2022-12-07T14:56:22;3.42;;;0.90;;
68214;SDS011;55036;52.138;5.236;2022-12-07T14:58:53;6.45;;;1.20;;
68214;SDS011;55036;52.138;5.236;2022-12-07T15:01:20;4.50;;;1.05;;
68214;SDS011;55036;52.138;5.236;2022-12-07T15:03:46;5.68;;;1.23;;
68214;SDS011;55036;52.138;5.236;2022-12-07T15:06:14;3.85;;;1.10;;
68214;SDS011;55036;52.138;5.236;2022-12-07T15:08:42;5.80;;;1.42;;
68214;SDS011;55036;52.138;5.236;2022-12-07T15:11:14;2.38;;;1.15;;
68214;SDS011;55036;52.138;5.236;2022-12-07T15:13:41;5.40;;;1.42;;
68214;SDS011;55036;52.138;5.236;2022-12-07T15:16:27;4.07;;;1.10;;
68214;SDS011;55036;52.138;5.236;2022-12-07T15:19:08;3.90;;;1.70;;
68214;SDS011;55036;52.138;5.236;2022-12-07T15:21:58;5.30;;;1.10;;
68214;SDS011;55036;52.138;5.236;2022-12-07T15:24:26;3.20;;;1.25;;
68214;SDS011;55036;52.138;5.236;2022-12-07T15:26:53;4.47;;;1.33;;
68214;SDS011;55036;52.138;5.236;2022-12-07T15:29:19;4.20;;;0.98;;
68214;SDS011;55036;52.138;5.236;2022-12-07T15:31:49;5.30;;;1.10;;
68214;SDS011;55036;52.138;5.236;2022-12-07T15:34:24;2.60;;;1.15;;
68214;SDS011;55036;52.138;5.236;2022-12-07T15:37:01;3.30;;;1.10;;
68214;SDS011;55036;52.138;5.236;2022-12-07T15:39:28;3.75;;;1.40;;
68214;SDS011;55036;52.138;5.236;2022-12-07T15:41:54;7.20;;;1.73;;
68214;SDS011;55036;52.138;5.236;2022-12-07T15:44:21;8.88;;;2.20;;
68214;SDS011;55036;52.138;5.236;2022-12-07T15:47:06;6.63;;;1.70;;
68214;SDS011;55036;52.138;5.236;2022-12-07T15:49:33;7.43;;;2.50;;
68214;SDS011;55036;52.138;5.236;2022-12-07T15:51:59;8.50;;;2.30;;
68214;SDS011;55036;52.138;5.236;2022-12-07T15:54:27;6.35;;;2.13;;
68214;SDS011;55036;52.138;5.236;2022-12-07T15:56:55;4.95;;;2.28;;
68214;SDS011;55036;52.138;5.236;2022-12-07T15:59:22;7.03;;;2.30;;
68214;SDS011;55036;52.138;5.236;2022-12-07T16:01:49;5.95;;;2.05;;
68214;SDS011;55036;52.138;5.236;2022-12-07T16:04:16;5.50;;;1.88;;
68214;SDS011;55036;52.138;5.236;2022-12-07T16:06:42;5.57;;;1.45;;
68214;SDS011;55036;52.138;5.236;2022-12-07T16:09:09;4.22;;;1.20;;
68214;SDS011;55036;52.138;5.236;2022-12-07T16:11:36;5.05;;;1.20;;
68214;SDS011;55036;52.138;5.236;2022-12-07T16:14:02;5.88;;;1.42;;
68214;SDS011;55036;52.138;5.236;2022-12-07T16:16:29;5.43;;;1.35;;
68214;SDS011;55036;52.138;5.236;2022-12-07T16:18:56;3.35;;;1.42;;
68214;SDS011;55036;52.138;5.236;2022-12-07T16:21:23;3.42;;;1.38;;
68214;SDS011;55036;52.138;5.236;2022-12-07T16:23:51;4.93;;;1.60;;
68214;SDS011;55036;52.138;5.236;2022-12-07T16:26:19;5.82;;;2.10;;
68214;SDS011;55036;52.138;5.236;2022-12-07T16:28:50;8.35;;;2.92;;
68214;SDS011;55036;52.138;5.236;2022-12-07T16:31:19;9.95;;;2.78;;
68214;SDS011;55036;52.138;5.236;2022-12-07T16:33:47;9.68;;;2.03;;
68214;SDS011;55036;52.138;5.236;2022-12-07T16:36:15;5.80;;;2.17;;
68214;SDS011;55036;52.138;5.236;2022-12-07T16:39:02;7.70;;;1.90;;
68214;SDS011;55036;52.138;5.236;2022-12-07T16:41:30;14.43;;;5.55;;
68214;SDS011;55036;52.138;5.236;2022-12-07T16:43:57;13.70;;;6.85;;
68214;SDS011;55036;52.138;5.236;2022-12-07T16:46:29;14.65;;;6.30;;
68214;SDS011;55036;52.138;5.236;2022-12-07T16:48:57;11.68;;;6.45;;
68214;SDS011;55036;52.138;5.236;2022-12-07T16:51:24;13.10;;;7.20;;
68214;SDS011;55036;52.138;5.236;2022-12-07T16:53:50;10.05;;;6.22;;
68214;SDS011;55036;52.138;5.236;2022-12-07T16:56:18;11.25;;;7.03;;
68214;SDS011;55036;52.138;5.236;2022-12-07T16:58:45;8.48;;;4.70;;
68214;SDS011;55036;52.138;5.236;2022-12-07T17:01:18;6.07;;;2.90;;
68214;SDS011;55036;52.138;5.236;2022-12-07T17:06:13;4.57;;;2.42;;
68214;SDS011;55036;52.138;5.236;2022-12-07T17:08:42;7.53;;;3.10;;
68214;SDS011;55036;52.138;5.236;2022-12-07T17:11:10;6.82;;;2.95;;
68214;SDS011;55036;52.138;5.236;2022-12-07T17:13:42;12.02;;;4.68;;
68214;SDS011;55036;52.138;5.236;2022-12-07T17:16:28;17.33;;;6.85;;
68214;SDS011;55036;52.138;5.236;2022-12-07T17:18:55;24.55;;;10.02;;
68214;SDS011;55036;52.138;5.236;2022-12-07T17:21:22;22.30;;;9.70;;
68214;SDS011;55036;52.138;5.236;2022-12-07T17:23:48;37.35;;;14.13;;
68214;SDS011;55036;52.138;5.236;2022-12-07T17:26:23;58.80;;;21.50;;
68214;SDS011;55036;52.138;5.236;2022-12-07T17:28:58;80.78;;;29.20;;